createdAt,value
2022-11-29T00:00:39.210Z,11.100
2022-11-29T00:01:32.578Z,10.800
2022-11-29T00:02:29.421Z,12.900
2022-11-29T00:03:28.315Z,12.000
2022-11-29T00:04:34.422Z,12.900
2022-11-29T00:05:34.012Z,14.550
2022-11-29T00:06:39.394Z,14.700
2022-11-29T00:07:44.849Z,14.600
2022-11-29T00:08:46.407Z,17.400
2022-11-29T00:09:38.644Z,17.150
2022-11-29T00:10:37.234Z,15.800
2022-11-29T00:12:20.656Z,15.000
2022-11-29T00:12:34.521Z,23.100
2022-11-29T00:13:30.738Z,17.600
2022-11-29T00:14:23.311Z,18.300
2022-11-29T00:15:31.321Z,20.050
2022-11-29T00:16:26.675Z,18.100
2022-11-29T00:17:25.163Z,18.100
2022-11-29T00:18:34.217Z,21.700
2022-11-29T00:19:31.435Z,18.800
2022-11-29T00:20:23.109Z,18.800
2022-11-29T00:21:26.566Z,18.300
2022-11-29T00:22:29.743Z,16.650
2022-11-29T00:23:24.995Z,18.800
2022-11-29T00:24:29.647Z,20.300
2022-11-29T00:25:31.646Z,19.500
2022-11-29T00:26:33.400Z,17.900
2022-11-29T00:27:24.455Z,18.200
2022-11-29T00:28:28.600Z,17.150
2022-11-29T00:29:26.635Z,17.200
2022-11-29T00:30:25.028Z,15.450
2022-11-29T00:31:22.523Z,16.700
2022-11-29T00:32:19.455Z,17.000
2022-11-29T00:33:28.093Z,16.400
2022-11-29T00:34:23.412Z,15.300
2022-11-29T00:35:28.312Z,15.100
2022-11-29T00:36:27.335Z,15.000
2022-11-29T00:37:25.766Z,14.050
2022-11-29T00:38:21.158Z,12.700
2022-11-29T00:39:24.111Z,11.150
2022-11-29T00:40:29.733Z,10.550
2022-11-29T00:41:28.997Z,8.200
2022-11-29T00:42:38.939Z,9.750
2022-11-29T00:43:29.441Z,10.700
2022-11-29T00:44:27.109Z,9.800
2022-11-29T00:45:24.297Z,9.000
2022-11-29T00:46:27.432Z,8.150
2022-11-29T00:47:29.938Z,8.200
2022-11-29T00:48:24.554Z,6.900
2022-11-29T00:49:34.392Z,7.400
2022-11-29T00:50:20.322Z,5.500
2022-11-29T00:51:27.972Z,6.050
2022-11-29T00:52:21.092Z,6.500
2022-11-29T00:53:35.877Z,5.750
2022-11-29T00:54:27.394Z,5.450
2022-11-29T00:55:24.256Z,5.800
2022-11-29T00:56:38.164Z,4.650
2022-11-29T00:57:23.499Z,4.100
2022-11-29T00:58:26.984Z,4.950
2022-11-29T00:59:24.298Z,6.200
2022-11-29T01:00:31.988Z,5.600
2022-11-29T01:01:28.556Z,5.450
2022-11-29T01:02:40.514Z,4.400
2022-11-29T01:03:33.300Z,4.700
2022-11-29T01:04:30.648Z,5.850
2022-11-29T01:05:25.390Z,4.500
2022-11-29T01:06:22.169Z,3.900
2022-11-29T01:07:21.408Z,4.650
2022-11-29T01:08:21.866Z,4.500
2022-11-29T01:09:23.434Z,5.800
2022-11-29T01:10:35.625Z,4.700
2022-11-29T01:11:29.843Z,4.800
2022-11-29T01:12:25.289Z,5.000
2022-11-29T01:13:22.060Z,5.650
2022-11-29T01:14:25.700Z,4.900
2022-11-29T01:15:28.140Z,4.500
2022-11-29T01:16:24.200Z,4.600
2022-11-29T01:17:33.333Z,3.700
2022-11-29T01:18:30.619Z,4.100
2022-11-29T01:19:20.231Z,4.000
2022-11-29T01:20:37.454Z,4.100
2022-11-29T01:21:31.211Z,4.200
2022-11-29T01:22:22.260Z,4.300
2022-11-29T01:23:19.875Z,4.800
2022-11-29T01:24:34.252Z,4.450
2022-11-29T01:25:29.001Z,3.400
2022-11-29T01:26:26.484Z,4.500
2022-11-29T01:27:22.423Z,4.100
2022-11-29T01:28:33.773Z,4.900
2022-11-29T01:29:28.917Z,4.800
2022-11-29T01:30:19.841Z,3.500
2022-11-29T01:31:35.423Z,4.800
2022-11-29T01:32:28.868Z,3.950
2022-11-29T01:33:25.803Z,5.100
2022-11-29T01:34:21.099Z,4.100
2022-11-29T01:35:32.098Z,3.900
2022-11-29T01:36:35.573Z,4.800
2022-11-29T01:37:24.160Z,4.200
2022-11-29T01:38:48.650Z,4.200
2022-11-29T01:39:30.754Z,3.800
2022-11-29T01:40:21.589Z,4.400
2022-11-29T01:41:21.491Z,3.600
2022-11-29T01:42:32.541Z,3.850
2022-11-29T01:43:29.500Z,3.700
2022-11-29T01:44:30.352Z,3.600
2022-11-29T01:45:21.480Z,4.100
2022-11-29T01:46:30.405Z,4.800
2022-11-29T01:47:25.236Z,3.750
2022-11-29T01:48:21.248Z,3.400
2022-11-29T01:49:32.452Z,4.100
2022-11-29T01:50:28.963Z,4.800
2022-11-29T01:51:23.880Z,3.700
2022-11-29T01:52:26.609Z,4.550
2022-11-29T01:53:30.108Z,3.750
2022-11-29T01:54:26.761Z,4.300
2022-11-29T01:55:24.032Z,4.200
2022-11-29T01:56:31.451Z,3.600
2022-11-29T01:57:24.952Z,4.850
2022-11-29T01:58:22.849Z,4.650
2022-11-29T01:59:29.765Z,4.300
2022-11-29T02:00:35.289Z,3.800
2022-11-29T02:01:37.564Z,3.600
2022-11-29T02:02:22.011Z,3.500
2022-11-29T02:43:25.487Z,2.000
2022-11-29T02:44:22.118Z,2.300
2022-11-29T02:45:23.949Z,2.150
2022-11-29T02:46:25.774Z,1.800
2022-11-29T02:48:01.488Z,2.000
2022-11-29T02:48:30.166Z,2.400
2022-11-29T02:49:30.076Z,1.500
2022-11-29T03:22:30.226Z,2.000
2022-11-29T03:23:31.253Z,1.800
2022-11-29T03:24:25.656Z,2.150
2022-11-29T03:25:40.562Z,2.200
2022-11-29T03:26:26.406Z,3.200
2022-11-29T03:27:29.173Z,2.200
2022-11-29T03:28:30.291Z,2.050
2022-11-29T03:29:23.582Z,1.800
2022-11-29T03:30:22.136Z,2.000
2022-11-29T03:31:27.876Z,2.600
2022-11-29T03:32:26.620Z,1.850
2022-11-29T03:33:21.294Z,2.300
2022-11-29T03:34:35.278Z,2.200
2022-11-29T03:35:30.656Z,3.000
2022-11-29T03:36:26.285Z,3.250
2022-11-29T03:37:19.245Z,2.200
2022-11-29T03:38:25.798Z,1.600
2022-11-29T03:39:24.007Z,2.500
2022-11-29T03:40:20.940Z,2.250
2022-11-29T03:41:31.166Z,3.300
2022-11-29T03:42:28.642Z,1.750
2022-11-29T03:43:25.647Z,2.100
2022-11-29T03:44:23.221Z,3.500
2022-11-29T03:45:31.286Z,1.900
2022-11-29T03:46:24.210Z,2.500
2022-11-29T03:47:26.103Z,2.500
2022-11-29T03:48:50.119Z,2.300
2022-11-29T03:49:23.572Z,2.800
2022-11-29T03:50:27.016Z,2.150
2022-11-29T03:51:22.434Z,2.300
2022-11-29T03:52:36.121Z,2.400
2022-11-29T03:53:26.695Z,2.000
2022-11-29T03:54:30.133Z,3.000
2022-11-29T03:55:27.209Z,3.250
2022-11-29T03:56:30.508Z,2.800
2022-11-29T03:57:26.254Z,2.700
2022-11-29T03:58:22.663Z,2.800
2022-11-29T03:59:29.121Z,1.950
2022-11-29T04:00:31.154Z,3.700
2022-11-29T04:01:23.637Z,2.700
2022-11-29T04:02:21.363Z,3.250
2022-11-29T04:03:27.613Z,2.800
2022-11-29T04:04:25.251Z,3.000
2022-11-29T04:05:19.298Z,2.900
2022-11-29T04:06:25.625Z,3.850
2022-11-29T04:07:25.336Z,2.400
2022-11-29T04:08:28.431Z,3.100
2022-11-29T04:09:27.389Z,3.350
2022-11-29T04:10:29.498Z,2.300
2022-11-29T04:11:30.966Z,2.150
2022-11-29T04:12:19.620Z,3.500
2022-11-29T04:13:29.522Z,3.200
2022-11-29T04:14:26.956Z,2.800
2022-11-29T04:15:21.681Z,3.100
2022-11-29T04:16:26.494Z,3.900
2022-11-29T04:17:25.126Z,2.450
2022-11-29T04:18:23.219Z,3.300
2022-11-29T04:19:19.267Z,3.100
2022-11-29T04:20:29.208Z,3.750
2022-11-29T04:21:26.808Z,2.000
2022-11-29T04:22:21.490Z,2.500
2022-11-29T04:23:29.350Z,3.150
2022-11-29T04:24:28.537Z,3.150
2022-11-29T04:25:23.288Z,3.000
2022-11-29T04:26:23.773Z,2.800
2022-11-29T04:27:22.401Z,2.950
2022-11-29T04:28:25.528Z,6.000
2022-11-29T04:29:25.875Z,4.450
2022-11-29T04:30:31.742Z,2.950
2022-11-29T04:31:26.442Z,3.100
2022-11-29T04:32:26.388Z,3.150
2022-11-29T04:33:22.483Z,2.200
2022-11-29T04:34:27.696Z,3.300
2022-11-29T04:35:25.344Z,3.350
2022-11-29T04:36:25.923Z,3.400
2022-11-29T04:37:35.377Z,2.950
2022-11-29T04:38:27.346Z,3.200
2022-11-29T04:39:19.789Z,2.900
2022-11-29T04:40:22.010Z,2.100
2022-11-29T04:41:25.939Z,3.500
2022-11-29T04:42:30.034Z,4.750
2022-11-29T04:43:20.963Z,2.700
2022-11-29T04:44:39.451Z,2.000
2022-11-29T04:45:20.820Z,3.300
2022-11-29T04:46:24.877Z,3.400
2022-11-29T04:47:23.023Z,3.350
2022-11-29T04:48:32.807Z,2.600
2022-11-29T04:49:27.978Z,3.400
2022-11-29T04:50:21.729Z,3.750
2022-11-29T04:51:22.687Z,4.600
2022-11-29T04:52:27.932Z,2.900
2022-11-29T04:53:24.008Z,3.400
2022-11-29T04:54:20.984Z,3.900
2022-11-29T04:55:30.635Z,2.550
2022-11-29T04:56:25.596Z,3.550
2022-11-29T04:57:29.571Z,3.300
2022-11-29T04:58:35.222Z,2.950
2022-11-29T04:59:29.285Z,5.000
2022-11-29T05:00:23.687Z,2.600
2022-11-29T05:01:21.673Z,3.550
2022-11-29T05:02:28.648Z,2.950
2022-11-29T05:03:22.082Z,3.700
2022-11-29T05:04:21.340Z,3.300
2022-11-29T05:05:31.336Z,2.700
2022-11-29T05:06:30.689Z,2.900
2022-11-29T05:07:24.995Z,2.700
2022-11-29T05:08:21.274Z,3.000
2022-11-29T05:09:25.833Z,3.550
2022-11-29T05:10:25.532Z,2.600
2022-11-29T05:11:26.894Z,5.900
2022-11-29T05:12:32.659Z,4.500
2022-11-29T05:13:27.800Z,5.100
2022-11-29T05:14:20.827Z,6.200
2022-11-29T05:15:23.210Z,5.250
2022-11-29T05:16:27.587Z,5.150
2022-11-29T05:17:29.294Z,4.600
2022-11-29T05:18:21.481Z,3.100
2022-11-29T05:19:22.851Z,3.700
2022-11-29T05:20:27.533Z,4.700
2022-11-29T05:21:23.473Z,4.900
2022-11-29T05:22:20.969Z,4.600
2022-11-29T05:23:31.936Z,5.850
2022-11-29T05:24:29.955Z,5.900
2022-11-29T05:25:22.613Z,5.100
2022-11-29T05:26:31.695Z,5.750
2022-11-29T05:27:27.083Z,6.100
2022-11-29T05:28:27.800Z,5.750
2022-11-29T05:29:22.931Z,4.250
2022-11-29T05:30:31.634Z,7.400
2022-11-29T05:31:27.541Z,6.250
2022-11-29T05:32:21.430Z,5.700
2022-11-29T05:33:24.591Z,3.700
2022-11-29T05:34:34.702Z,3.950
2022-11-29T05:35:28.687Z,5.900
2022-11-29T05:36:21.427Z,5.300
2022-11-29T05:37:33.760Z,4.600
2022-11-29T05:38:27.000Z,6.450
2022-11-29T05:39:24.119Z,5.100
2022-11-29T05:40:30.175Z,6.900
2022-11-29T05:41:31.565Z,5.300
2022-11-29T05:42:23.358Z,8.200
2022-11-29T05:43:21.516Z,7.350
2022-11-29T05:44:29.782Z,3.600
2022-11-29T05:45:26.823Z,4.300
2022-11-29T05:46:26.451Z,5.300
2022-11-29T05:47:31.248Z,4.450
2022-11-29T05:48:41.334Z,3.500
2022-11-29T05:49:27.876Z,3.700
2022-11-29T05:50:22.049Z,3.250
2022-11-29T05:51:29.519Z,6.000
2022-11-29T05:52:27.633Z,5.950
2022-11-29T05:53:27.454Z,4.700
2022-11-29T05:54:25.866Z,4.550
2022-11-29T05:55:48.612Z,3.650
2022-11-29T05:56:25.544Z,4.900
2022-11-29T05:57:26.694Z,5.500
2022-11-29T05:58:31.124Z,4.500
2022-11-29T05:59:27.464Z,4.500
2022-11-29T06:00:21.819Z,3.800
2022-11-29T06:01:21.119Z,5.250
2022-11-29T06:02:26.343Z,3.750
2022-11-29T06:03:27.400Z,3.900
2022-11-29T06:04:24.334Z,3.650
2022-11-29T06:05:30.670Z,3.500
2022-11-29T06:06:25.801Z,5.350
2022-11-29T06:07:28.189Z,3.900
2022-11-29T06:08:23.857Z,3.500
2022-11-29T06:09:28.031Z,5.600
2022-11-29T06:10:26.616Z,4.350
2022-11-29T06:11:23.048Z,4.000
2022-11-29T06:12:30.732Z,3.950
2022-11-29T06:13:31.373Z,4.500
2022-11-29T06:14:23.973Z,4.150
2022-11-29T06:15:27.703Z,5.800
2022-11-29T06:16:34.797Z,4.300
2022-11-29T06:17:24.919Z,4.150
2022-11-29T06:18:21.110Z,4.800
2022-11-29T06:19:23.995Z,4.550
2022-11-29T06:20:43.944Z,3.800
2022-11-29T06:21:27.516Z,3.300
2022-11-29T06:22:29.225Z,4.400
2022-11-29T06:23:30.673Z,4.650
2022-11-29T06:24:26.090Z,3.350
2022-11-29T06:25:21.573Z,5.100
2022-11-29T06:26:23.249Z,3.650
2022-11-29T06:27:28.315Z,4.900
2022-11-29T06:28:25.239Z,3.950
2022-11-29T06:29:35.212Z,3.100
2022-11-29T06:30:31.503Z,4.400
2022-11-29T06:31:23.288Z,4.000
2022-11-29T06:32:26.477Z,4.950
2022-11-29T06:33:33.791Z,4.650
2022-11-29T06:34:27.643Z,3.600
2022-11-29T06:35:23.420Z,4.450
2022-11-29T06:36:33.237Z,5.350
2022-11-29T06:37:22.200Z,4.000
2022-11-29T06:38:27.124Z,4.800
2022-11-29T06:39:22.459Z,4.100
2022-11-29T06:40:21.256Z,4.850
2022-11-29T06:41:29.167Z,5.000
2022-11-29T06:42:21.321Z,4.700
2022-11-29T06:43:34.104Z,4.500
2022-11-29T06:44:25.018Z,3.950
2022-11-29T06:45:23.945Z,4.100
2022-11-29T06:46:21.338Z,5.050
2022-11-29T06:47:25.071Z,3.800
2022-11-29T06:48:19.850Z,8.400
2022-11-29T06:49:25.242Z,6.950
2022-11-29T06:50:33.191Z,6.400
2022-11-29T06:51:31.787Z,6.750
2022-11-29T06:52:24.776Z,7.500
2022-11-29T06:53:19.756Z,8.150
2022-11-29T06:54:30.131Z,10.400
2022-11-29T06:55:22.848Z,9.500
2022-11-29T06:56:21.809Z,9.800
2022-11-29T06:57:22.258Z,9.150
2022-11-29T06:58:34.521Z,8.250
2022-11-29T06:59:23.807Z,8.900
2022-11-29T07:00:22.620Z,8.200
2022-11-29T07:01:30.848Z,7.800
2022-11-29T07:02:26.239Z,10.000
2022-11-29T07:03:24.050Z,8.550
2022-11-29T07:04:23.827Z,8.150
2022-11-29T07:05:27.651Z,9.150
2022-11-29T07:06:26.575Z,7.400
2022-11-29T07:07:23.095Z,8.250
2022-11-29T07:08:32.073Z,7.800
2022-11-29T07:09:27.683Z,8.350
2022-11-29T07:10:24.199Z,6.700
2022-11-29T07:11:29.062Z,8.600
2022-11-29T07:12:21.017Z,7.850
2022-11-29T07:13:24.551Z,7.900
2022-11-29T07:14:19.795Z,7.700
2022-11-29T07:15:35.073Z,7.950
2022-11-29T07:16:28.926Z,7.800
2022-11-29T07:17:24.156Z,6.500
2022-11-29T07:18:23.979Z,7.300
2022-11-29T07:19:29.194Z,8.200
2022-11-29T07:20:27.333Z,8.600
2022-11-29T07:21:19.615Z,7.600
2022-11-29T07:22:31.549Z,7.100
2022-11-29T07:23:27.531Z,7.500
2022-11-29T07:24:29.317Z,6.950
2022-11-29T07:25:23.959Z,6.400
2022-11-29T07:26:29.197Z,5.500
2022-11-29T07:27:23.473Z,6.200
2022-11-29T07:28:19.671Z,6.350
2022-11-29T07:29:39.198Z,7.400
2022-11-29T07:30:25.557Z,7.100
2022-11-29T07:31:27.940Z,6.850
2022-11-29T07:32:33.812Z,5.650
2022-11-29T07:33:22.563Z,8.700
2022-11-29T07:34:28.427Z,6.050
2022-11-29T07:35:20.186Z,6.400
2022-11-29T07:36:30.678Z,6.050
2022-11-29T07:37:27.377Z,6.150
2022-11-29T07:38:24.988Z,6.400
2022-11-29T07:39:32.391Z,5.400
2022-11-29T07:40:37.185Z,5.800
2022-11-29T07:41:27.306Z,6.700
2022-11-29T07:42:25.659Z,5.550
2022-11-29T07:43:30.820Z,5.550
2022-11-29T07:44:26.419Z,7.200
2022-11-29T07:45:22.893Z,6.800
2022-11-29T07:46:40.779Z,6.100
2022-11-29T07:47:36.121Z,6.100
2022-11-29T07:48:25.773Z,5.800
2022-11-29T07:49:19.558Z,7.350
2022-11-29T07:50:20.828Z,5.150
2022-11-29T07:51:25.931Z,6.200
2022-11-29T07:52:23.432Z,8.550
2022-11-29T07:53:21.472Z,7.500
2022-11-29T07:54:27.834Z,5.800
2022-11-29T07:55:27.197Z,7.300
2022-11-29T07:56:20.552Z,7.200
2022-11-29T07:57:45.729Z,6.500
2022-11-29T07:58:25.911Z,7.300
2022-11-29T07:59:25.448Z,6.900
2022-11-29T08:00:25.135Z,7.150
2022-11-29T08:01:29.969Z,7.500
2022-11-29T08:02:24.178Z,7.900
2022-11-29T08:03:21.810Z,7.450
2022-11-29T08:04:30.063Z,9.500
2022-11-29T08:05:28.423Z,9.300
2022-11-29T08:06:21.970Z,8.850
2022-11-29T08:07:30.239Z,9.200
2022-11-29T08:08:32.695Z,9.400
2022-11-29T08:09:23.735Z,9.000
2022-11-29T08:10:20.026Z,9.900
2022-11-29T08:11:21.846Z,9.150
2022-11-29T08:12:26.764Z,8.700
2022-11-29T08:13:26.304Z,8.700
2022-11-29T08:14:38.607Z,10.050
2022-11-29T08:15:30.505Z,9.600
2022-11-29T08:16:27.464Z,8.000
2022-11-29T08:17:24.184Z,7.550
2022-11-29T08:18:24.839Z,8.800
2022-11-29T08:19:25.807Z,9.600
2022-11-29T08:20:23.869Z,9.100
2022-11-29T08:21:33.175Z,11.350
2022-11-29T08:22:23.286Z,7.600
2022-11-29T08:23:23.677Z,8.150
2022-11-29T08:24:22.927Z,6.800
2022-11-29T08:25:29.950Z,6.850
2022-11-29T08:26:24.446Z,7.600
2022-11-29T08:27:21.744Z,7.800
2022-11-29T08:28:25.062Z,6.100
2022-11-29T08:29:24.527Z,8.200
2022-11-29T08:30:28.938Z,7.200
2022-11-29T08:31:24.058Z,9.350
2022-11-29T08:32:36.051Z,10.800
2022-11-29T08:33:31.164Z,11.050
2022-11-29T08:34:24.138Z,10.150
2022-11-29T08:35:25.462Z,9.600
2022-11-29T08:36:28.213Z,9.500
2022-11-29T08:37:23.788Z,9.350
2022-11-29T08:38:22.987Z,8.100
2022-11-29T08:39:38.396Z,8.250
2022-11-29T08:40:20.982Z,10.500
2022-11-29T08:41:26.536Z,12.850
2022-11-29T08:42:33.085Z,10.550
2022-11-29T08:43:23.756Z,9.800
2022-11-29T08:44:23.588Z,10.800
2022-11-29T08:45:20.381Z,9.250
2022-11-29T08:46:29.967Z,9.700
2022-11-29T08:47:27.953Z,9.300
2022-11-29T08:48:21.526Z,7.500
2022-11-29T08:49:35.881Z,7.100
2022-11-29T08:50:27.865Z,6.700
2022-11-29T08:51:19.725Z,6.950
2022-11-29T08:52:19.568Z,10.200
2022-11-29T08:53:35.270Z,7.650
2022-11-29T08:54:30.163Z,7.700
2022-11-29T08:55:22.145Z,10.350
2022-11-29T08:57:37.849Z,9.950
2022-11-29T08:57:40.948Z,9.250
2022-11-29T08:58:23.887Z,8.700
2022-11-29T08:59:20.286Z,9.450
2022-11-29T09:00:29.908Z,10.200
2022-11-29T09:01:27.417Z,11.200
2022-11-29T09:02:22.136Z,10.050
2022-11-29T09:03:29.496Z,9.300
2022-11-29T09:04:19.979Z,9.050
2022-11-29T09:05:26.052Z,10.450
2022-11-29T09:06:21.233Z,9.400
2022-11-29T09:07:34.500Z,10.350
2022-11-29T09:08:25.876Z,10.350
2022-11-29T09:09:22.982Z,12.700
2022-11-29T09:10:32.470Z,10.950
2022-11-29T09:11:29.592Z,9.500
2022-11-29T09:12:25.778Z,9.450
2022-11-29T09:13:20.805Z,8.500
2022-11-29T09:14:32.673Z,7.500
2022-11-29T09:15:29.453Z,9.550
2022-11-29T09:16:23.901Z,9.400
2022-11-29T09:17:34.858Z,8.100
2022-11-29T09:18:29.983Z,7.550
2022-11-29T09:19:23.893Z,7.150
2022-11-29T09:20:21.639Z,6.800
2022-11-29T09:21:22.781Z,6.350
2022-11-29T09:22:25.844Z,6.900
2022-11-29T09:23:22.227Z,7.300
2022-11-29T09:24:32.072Z,7.750
2022-11-29T09:25:27.696Z,8.000
2022-11-29T09:26:21.286Z,7.100
2022-11-29T09:27:22.097Z,6.300
2022-11-29T09:28:33.100Z,7.300
2022-11-29T09:29:21.169Z,7.850
2022-11-29T09:30:23.932Z,6.650
2022-11-29T09:31:32.226Z,7.850
2022-11-29T09:32:32.881Z,7.000
2022-11-29T09:33:23.707Z,8.300
2022-11-29T09:34:24.635Z,6.500
2022-11-29T09:35:33.616Z,7.800
2022-11-29T09:36:29.207Z,8.000
2022-11-29T09:37:21.989Z,7.000
2022-11-29T09:38:35.977Z,5.500
2022-11-29T09:39:29.929Z,7.400
2022-11-29T09:40:23.687Z,6.000
2022-11-29T09:41:25.278Z,5.700
2022-11-29T09:42:30.127Z,5.950
2022-11-29T09:43:25.010Z,5.100
2022-11-29T09:44:23.956Z,7.350
2022-11-29T09:45:25.699Z,6.900
2022-11-29T09:46:28.276Z,6.500
2022-11-29T09:47:26.518Z,6.750
2022-11-29T09:48:19.913Z,5.450
2022-11-29T09:49:23.190Z,5.200
2022-11-29T09:50:26.094Z,7.050
2022-11-29T09:51:22.981Z,7.100
2022-11-29T09:52:26.311Z,5.900
2022-11-29T09:53:29.700Z,7.300
2022-11-29T09:54:27.715Z,6.450
2022-11-29T09:55:23.236Z,5.100
2022-11-29T09:56:20.356Z,5.650
2022-11-29T09:57:19.905Z,8.200
2022-11-29T09:58:23.130Z,7.100
2022-11-29T09:59:31.605Z,7.600
2022-11-29T10:00:32.004Z,7.400
2022-11-29T10:01:24.370Z,7.800
2022-11-29T10:02:22.219Z,6.600
2022-11-29T10:03:24.955Z,6.300
2022-11-29T10:04:27.476Z,6.100
2022-11-29T10:05:22.110Z,5.800
2022-11-29T10:06:37.089Z,6.050
2022-11-29T10:07:20.068Z,8.200
2022-11-29T10:08:24.006Z,7.700
2022-11-29T10:09:20.423Z,7.600
2022-11-29T10:10:29.761Z,7.200
2022-11-29T10:11:25.993Z,7.200
2022-11-29T10:12:24.634Z,6.800
2022-11-29T10:13:33.957Z,8.200
2022-11-29T10:14:24.125Z,7.900
2022-11-29T10:15:23.953Z,7.200
2022-11-29T10:16:23.491Z,5.300
2022-11-29T10:17:27.370Z,7.700
2022-11-29T10:18:34.385Z,7.700
2022-11-29T10:19:23.660Z,8.850
2022-11-29T10:20:34.285Z,8.600
2022-11-29T10:21:25.978Z,8.750
2022-11-29T10:22:23.980Z,7.900
2022-11-29T10:23:20.201Z,9.400
2022-11-29T10:24:32.988Z,9.900
2022-11-29T10:25:26.787Z,8.900
2022-11-29T10:26:54.031Z,7.600
2022-11-29T10:27:22.175Z,9.850
2022-11-29T10:28:23.091Z,8.500
2022-11-29T10:29:25.409Z,8.600
2022-11-29T10:30:19.942Z,8.150
2022-11-29T10:31:30.752Z,10.100
2022-11-29T10:32:22.137Z,8.100
2022-11-29T10:33:21.863Z,8.300
2022-11-29T10:34:27.768Z,9.100
2022-11-29T10:35:31.577Z,8.750
2022-11-29T10:36:23.838Z,8.900
2022-11-29T10:37:23.789Z,8.100
2022-11-29T10:38:33.296Z,7.400
2022-11-29T10:39:20.899Z,9.900
2022-11-29T10:40:24.799Z,6.800
2022-11-29T10:41:36.151Z,6.600
2022-11-29T10:42:22.856Z,7.000
2022-11-29T10:43:25.191Z,7.150
2022-11-29T10:44:19.881Z,7.400
2022-11-29T10:45:21.271Z,6.900
2022-11-29T10:46:31.738Z,6.900
2022-11-29T10:47:41.526Z,8.400
2022-11-29T10:48:35.174Z,7.250
2022-11-29T10:49:33.093Z,7.950
2022-11-29T10:50:21.784Z,8.500
2022-11-29T10:51:23.892Z,7.900
2022-11-29T10:52:24.279Z,6.500
2022-11-29T10:53:31.288Z,7.300
2022-11-29T10:54:24.527Z,6.850
2022-11-29T10:55:32.663Z,7.100
2022-11-29T10:56:21.606Z,7.250
2022-11-29T10:57:28.206Z,6.400
2022-11-29T10:58:24.740Z,6.200
2022-11-29T10:59:29.953Z,6.900
2022-11-29T11:00:22.805Z,8.000
2022-11-29T11:01:22.323Z,7.200
2022-11-29T11:02:26.629Z,6.100
2022-11-29T11:03:28.133Z,7.750
2022-11-29T11:04:24.088Z,6.250
2022-11-29T11:05:21.259Z,5.600
2022-11-29T11:06:32.519Z,6.200
2022-11-29T11:07:28.341Z,6.000
2022-11-29T11:08:24.208Z,6.250
2022-11-29T11:09:48.166Z,6.200
2022-11-29T11:10:30.253Z,6.100
2022-11-29T11:11:25.026Z,5.800
2022-11-29T11:12:20.217Z,5.800
2022-11-29T11:13:24.168Z,6.600
2022-11-29T11:14:31.248Z,7.450
2022-11-29T11:15:23.019Z,7.550
2022-11-29T11:16:45.970Z,9.100
2022-11-29T11:18:01.537Z,7.750
2022-11-29T11:18:23.866Z,6.900
2022-11-29T11:19:24.028Z,8.000
2022-11-29T11:20:22.004Z,6.600
2022-11-29T11:21:27.037Z,7.300
2022-11-29T11:22:22.010Z,7.100
2022-11-29T11:23:21.546Z,8.900
2022-11-29T11:24:22.893Z,9.900
2022-11-29T11:25:25.175Z,8.450
2022-11-29T11:26:20.008Z,7.900
2022-11-29T11:27:27.748Z,8.550
2022-11-29T11:28:25.816Z,6.300
2022-11-29T11:29:21.984Z,8.500
2022-11-29T11:30:21.656Z,6.800
2022-11-29T11:31:40.538Z,6.700
2022-11-29T11:32:25.098Z,8.100
2022-11-29T11:33:29.819Z,6.550
2022-11-29T11:34:30.205Z,7.450
2022-11-29T11:35:25.888Z,5.800
2022-11-29T11:36:30.592Z,6.600
2022-11-29T11:37:23.182Z,6.750
2022-11-29T11:38:23.689Z,6.500
2022-11-29T11:39:23.782Z,7.350
2022-11-29T11:40:21.421Z,6.400
2022-11-29T11:41:22.849Z,7.400
2022-11-29T11:42:27.253Z,7.600
2022-11-29T11:43:22.019Z,6.400
2022-11-29T11:44:46.514Z,6.000
2022-11-29T11:45:30.766Z,6.050
2022-11-29T11:46:23.863Z,6.500
2022-11-29T11:47:19.741Z,7.700
2022-11-29T11:48:21.772Z,6.650
2022-11-29T11:49:33.024Z,5.500
2022-11-29T11:50:24.944Z,4.900
2022-11-29T11:51:28.908Z,6.300
2022-11-29T11:52:19.757Z,9.300
2022-11-29T11:53:23.702Z,8.750
2022-11-29T11:54:22.891Z,7.000
2022-11-29T11:55:28.193Z,5.550
2022-11-29T11:56:36.716Z,7.200
2022-11-29T11:57:21.785Z,6.200
2022-11-29T11:58:29.153Z,6.250
2022-11-29T11:59:28.504Z,6.450
2022-11-29T12:01:01.990Z,5.900
2022-11-29T12:01:24.931Z,5.350
2022-11-29T12:02:30.466Z,7.200
2022-11-29T12:03:44.524Z,5.650
2022-11-29T12:04:33.536Z,6.000
2022-11-29T12:05:25.101Z,4.800
2022-11-29T12:06:22.141Z,4.600
2022-11-29T12:08:06.089Z,5.150
2022-11-29T12:08:21.378Z,6.000
2022-11-29T12:09:22.669Z,6.200
2022-11-29T12:10:27.219Z,5.000
2022-11-29T12:11:22.891Z,4.800
2022-11-29T12:12:35.606Z,5.800
2022-11-29T12:13:27.071Z,5.600
2022-11-29T12:14:43.249Z,5.750
2022-11-29T12:15:20.516Z,6.500
2022-11-29T12:16:23.383Z,4.250
2022-11-29T12:17:20.650Z,5.050
2022-11-29T12:18:24.060Z,4.900
2022-11-29T12:19:36.434Z,4.750
2022-11-29T12:20:27.666Z,7.300
2022-11-29T12:21:25.123Z,4.900
2022-11-29T12:22:21.351Z,6.500
2022-11-29T12:23:26.701Z,5.500
2022-11-29T12:24:24.216Z,5.000
2022-11-29T12:25:26.354Z,5.500
2022-11-29T12:26:55.264Z,4.800
2022-11-29T12:27:34.404Z,3.800
2022-11-29T12:28:25.918Z,3.500
2022-11-29T12:29:19.931Z,4.300
2022-11-29T12:30:40.574Z,5.300
2022-11-29T12:31:39.979Z,4.700
2022-11-29T12:32:26.448Z,4.800
2022-11-29T12:33:33.453Z,4.900
2022-11-29T12:34:29.010Z,3.600
2022-11-29T12:35:25.436Z,3.950
2022-11-29T12:36:20.127Z,4.700
2022-11-29T12:37:21.071Z,4.450
2022-11-29T12:38:34.121Z,4.500
2022-11-29T12:39:24.817Z,5.900
2022-11-29T12:40:35.613Z,4.900
2022-11-29T12:41:29.467Z,4.750
2022-11-29T12:42:24.294Z,5.750
2022-11-29T12:43:21.155Z,4.200
2022-11-29T12:44:41.056Z,4.050
2022-11-29T12:45:27.154Z,4.500
2022-11-29T12:46:28.892Z,4.450
2022-11-29T12:47:36.596Z,4.600
2022-11-29T12:48:37.046Z,5.300
2022-11-29T12:49:28.708Z,5.150
2022-11-29T12:50:27.961Z,4.600
2022-11-29T12:51:22.910Z,4.400
2022-11-29T12:52:36.888Z,4.150
2022-11-29T12:53:28.586Z,4.400
2022-11-29T12:54:22.619Z,4.350
2022-11-29T12:55:37.955Z,3.000
2022-11-29T12:56:30.041Z,4.500
2022-11-29T12:57:32.903Z,3.850
2022-11-29T12:58:28.764Z,4.950
2022-11-29T12:59:39.853Z,3.800
2022-11-29T13:00:27.672Z,3.900
2022-11-29T13:01:28.837Z,3.500
2022-11-29T13:02:46.959Z,4.900
2022-11-29T13:03:37.730Z,5.300
2022-11-29T13:04:39.431Z,4.050
2022-11-29T13:05:20.209Z,4.700
2022-11-29T13:06:24.075Z,3.600
2022-11-29T13:07:29.472Z,3.700
2022-11-29T13:08:32.191Z,5.550
2022-11-29T13:09:25.116Z,4.750
2022-11-29T13:10:38.252Z,5.400
2022-11-29T13:11:24.391Z,3.500
2022-11-29T13:12:33.749Z,4.500
2022-11-29T13:13:28.850Z,4.700
2022-11-29T13:14:46.396Z,5.100
2022-11-29T13:15:36.117Z,4.550
2022-11-29T13:16:31.109Z,3.700
2022-11-29T13:17:20.618Z,4.300
2022-11-29T13:18:25.998Z,4.200
2022-11-29T13:19:40.869Z,3.900
2022-11-29T13:20:31.978Z,4.800
2022-11-29T13:21:23.275Z,4.400
2022-11-29T13:22:21.897Z,4.150
2022-11-29T13:23:45.950Z,3.900
2022-11-29T13:24:26.454Z,3.650
2022-11-29T13:25:29.517Z,3.600
2022-11-29T13:26:42.668Z,2.950
2022-11-29T13:27:33.964Z,3.800
2022-11-29T13:28:28.976Z,4.750
2022-11-29T13:29:30.277Z,4.400
2022-11-29T13:30:35.930Z,4.000
2022-11-29T13:31:31.511Z,3.350
2022-11-29T13:32:21.823Z,3.500
2022-11-29T13:33:46.710Z,3.400
2022-11-29T13:34:34.025Z,2.950
2022-11-29T13:35:32.437Z,3.700
2022-11-29T13:36:29.653Z,3.200
2022-11-29T13:37:40.995Z,3.500
2022-11-29T13:38:36.715Z,2.700
2022-11-29T13:39:27.269Z,3.050
2022-11-29T13:40:21.584Z,3.100
2022-11-29T13:41:45.946Z,3.600
2022-11-29T13:42:36.848Z,3.500
2022-11-29T13:43:32.052Z,3.800
2022-11-29T13:44:25.922Z,4.100
2022-11-29T13:45:23.901Z,3.850
2022-11-29T13:46:24.103Z,3.600
2022-11-29T13:47:25.228Z,3.000
2022-11-29T13:48:29.115Z,4.150
2022-11-29T13:49:24.832Z,3.350
2022-11-29T13:50:22.411Z,4.900
2022-11-29T13:51:19.943Z,3.650
2022-11-29T13:52:40.016Z,3.700
2022-11-29T13:53:20.080Z,3.900
2022-11-29T13:54:28.169Z,3.700
2022-11-29T13:55:23.246Z,3.900
2022-11-29T13:56:21.826Z,3.300
2022-11-29T13:57:54.018Z,4.000
2022-11-29T13:58:25.954Z,3.200
2022-11-29T13:59:27.204Z,4.050
2022-11-29T14:00:40.290Z,4.100
2022-11-29T14:01:31.934Z,3.800
2022-11-29T14:02:24.670Z,4.000